Terminal Aerodrome Forecast
Issued by NWS Cleveland, OH

Home | Current Version | Previous Version | Text Only | Print | Product List | Glossary Off
Versions: 1 2 3 4 5 6 7 8 9 10 11 12 13 14 15 16

000
FTUS41 KCLE 211100
TAFTOL
TAF
KTOL 211138Z 2112/2212 00000KT 4SM BR SCT250
     FM211400 VRB03KT P6SM SCT250
     FM211600 15005KT P6SM SCT045
     FM212200 VRB03KT P6SM SKC
      TEMPO 2210/2212 4SM BR=

USA.gov is the U.S. government's official web portal to all federal, state and local government web resources and services.